sensor_id;sensor_type;location;lat;lon;timestamp;P1;durP1;ratioP1;P2;durP2;ratioP2
6483;SDS011;3275;52.376;9.694;2023-12-20T00:01:54;6.50;;;3.67;;
6483;SDS011;3275;52.376;9.694;2023-12-20T00:04:21;7.50;;;5.07;;
6483;SDS011;3275;52.376;9.694;2023-12-20T00:06:47;6.73;;;4.37;;
6483;SDS011;3275;52.376;9.694;2023-12-20T00:09:14;13.23;;;4.70;;
6483;SDS011;3275;52.376;9.694;2023-12-20T00:11:40;8.00;;;4.30;;
6483;SDS011;3275;52.376;9.694;2023-12-20T00:14:07;13.83;;;4.70;;
6483;SDS011;3275;52.376;9.694;2023-12-20T00:16:35;10.13;;;4.20;;
6483;SDS011;3275;52.376;9.694;2023-12-20T00:19:02;7.93;;;3.03;;
6483;SDS011;3275;52.376;9.694;2023-12-20T00:21:28;10.53;;;3.97;;
6483;SDS011;3275;52.376;9.694;2023-12-20T00:23:55;5.93;;;3.87;;
6483;SDS011;3275;52.376;9.694;2023-12-20T00:26:21;7.63;;;3.33;;
6483;SDS011;3275;52.376;9.694;2023-12-20T00:28:48;8.67;;;3.10;;
6483;SDS011;3275;52.376;9.694;2023-12-20T00:31:14;9.37;;;2.60;;
6483;SDS011;3275;52.376;9.694;2023-12-20T00:33:42;6.90;;;2.47;;
6483;SDS011;3275;52.376;9.694;2023-12-20T00:36:11;9.17;;;3.10;;
6483;SDS011;3275;52.376;9.694;2023-12-20T00:38:37;7.67;;;2.60;;
6483;SDS011;3275;52.376;9.694;2023-12-20T00:41:04;5.80;;;2.60;;
6483;SDS011;3275;52.376;9.694;2023-12-20T00:43:31;7.60;;;2.90;;
6483;SDS011;3275;52.376;9.694;2023-12-20T00:45:57;7.73;;;3.13;;
6483;SDS011;3275;52.376;9.694;2023-12-20T00:48:25;6.33;;;2.30;;
6483;SDS011;3275;52.376;9.694;2023-12-20T00:50:53;7.10;;;3.13;;
6483;SDS011;3275;52.376;9.694;2023-12-20T00:53:19;12.20;;;2.83;;
6483;SDS011;3275;52.376;9.694;2023-12-20T00:55:46;6.60;;;2.33;;
6483;SDS011;3275;52.376;9.694;2023-12-20T00:58:14;6.63;;;1.50;;
6483;SDS011;3275;52.376;9.694;2023-12-20T01:00:42;6.70;;;1.40;;
6483;SDS011;3275;52.376;9.694;2023-12-20T01:03:09;5.23;;;1.70;;
6483;SDS011;3275;52.376;9.694;2023-12-20T01:05:35;3.93;;;1.43;;
6483;SDS011;3275;52.376;9.694;2023-12-20T01:08:03;9.70;;;2.10;;
6483;SDS011;3275;52.376;9.694;2023-12-20T01:10:31;12.63;;;1.80;;
6483;SDS011;3275;52.376;9.694;2023-12-20T01:12:57;2.80;;;1.67;;
6483;SDS011;3275;52.376;9.694;2023-12-20T01:15:24;6.10;;;1.87;;
6483;SDS011;3275;52.376;9.694;2023-12-20T01:17:51;3.03;;;1.40;;
6483;SDS011;3275;52.376;9.694;2023-12-20T01:20:17;4.50;;;1.70;;
6483;SDS011;3275;52.376;9.694;2023-12-20T01:22:45;4.97;;;1.83;;
6483;SDS011;3275;52.376;9.694;2023-12-20T01:25:13;13.20;;;3.43;;
6483;SDS011;3275;52.376;9.694;2023-12-20T01:27:39;4.70;;;2.00;;
6483;SDS011;3275;52.376;9.694;2023-12-20T01:30:06;6.30;;;1.73;;
6483;SDS011;3275;52.376;9.694;2023-12-20T01:32:33;7.63;;;1.80;;
6483;SDS011;3275;52.376;9.694;2023-12-20T01:35:00;4.47;;;1.73;;
6483;SDS011;3275;52.376;9.694;2023-12-20T01:37:27;7.77;;;1.80;;
6483;SDS011;3275;52.376;9.694;2023-12-20T01:39:54;8.87;;;1.60;;
6483;SDS011;3275;52.376;9.694;2023-12-20T01:42:22;2.33;;;1.53;;
6483;SDS011;3275;52.376;9.694;2023-12-20T01:44:48;6.33;;;1.60;;
6483;SDS011;3275;52.376;9.694;2023-12-20T01:47:15;9.37;;;1.37;;
6483;SDS011;3275;52.376;9.694;2023-12-20T01:49:42;6.40;;;2.00;;
6483;SDS011;3275;52.376;9.694;2023-12-20T01:52:09;4.93;;;1.70;;
6483;SDS011;3275;52.376;9.694;2023-12-20T01:54:36;8.27;;;1.50;;
6483;SDS011;3275;52.376;9.694;2023-12-20T01:57:04;6.43;;;1.77;;
6483;SDS011;3275;52.376;9.694;2023-12-20T01:59:33;8.07;;;2.10;;
6483;SDS011;3275;52.376;9.694;2023-12-20T02:02:01;5.37;;;1.40;;
6483;SDS011;3275;52.376;9.694;2023-12-20T02:04:29;5.30;;;1.43;;
6483;SDS011;3275;52.376;9.694;2023-12-20T02:06:56;6.60;;;1.77;;
6483;SDS011;3275;52.376;9.694;2023-12-20T02:09:23;2.93;;;1.13;;
6483;SDS011;3275;52.376;9.694;2023-12-20T02:11:50;3.00;;;1.00;;
6483;SDS011;3275;52.376;9.694;2023-12-20T02:14:16;8.33;;;1.70;;
6483;SDS011;3275;52.376;9.694;2023-12-20T02:16:44;1.97;;;0.97;;
6483;SDS011;3275;52.376;9.694;2023-12-20T02:19:13;4.63;;;1.60;;
6483;SDS011;3275;52.376;9.694;2023-12-20T02:21:41;2.83;;;1.20;;
6483;SDS011;3275;52.376;9.694;2023-12-20T02:24:08;3.53;;;1.40;;
6483;SDS011;3275;52.376;9.694;2023-12-20T02:26:34;9.70;;;1.50;;
6483;SDS011;3275;52.376;9.694;2023-12-20T02:29:01;2.83;;;1.40;;
6483;SDS011;3275;52.376;9.694;2023-12-20T02:31:28;5.90;;;1.47;;
6483;SDS011;3275;52.376;9.694;2023-12-20T02:33:55;7.90;;;1.60;;
6483;SDS011;3275;52.376;9.694;2023-12-20T02:36:21;3.10;;;1.57;;
6483;SDS011;3275;52.376;9.694;2023-12-20T02:38:49;3.20;;;1.20;;
6483;SDS011;3275;52.376;9.694;2023-12-20T02:41:16;14.07;;;2.07;;
6483;SDS011;3275;52.376;9.694;2023-12-20T02:43:43;4.60;;;1.83;;
6483;SDS011;3275;52.376;9.694;2023-12-20T02:46:09;5.07;;;2.03;;
6483;SDS011;3275;52.376;9.694;2023-12-20T02:48:36;5.80;;;2.23;;
6483;SDS011;3275;52.376;9.694;2023-12-20T02:51:03;3.20;;;1.50;;
6483;SDS011;3275;52.376;9.694;2023-12-20T02:53:30;3.93;;;1.90;;
6483;SDS011;3275;52.376;9.694;2023-12-20T02:55:58;5.30;;;1.37;;
6483;SDS011;3275;52.376;9.694;2023-12-20T02:58:24;3.30;;;1.30;;
6483;SDS011;3275;52.376;9.694;2023-12-20T03:00:51;4.87;;;1.07;;
6483;SDS011;3275;52.376;9.694;2023-12-20T03:03:17;4.43;;;1.30;;
6483;SDS011;3275;52.376;9.694;2023-12-20T03:05:44;6.13;;;1.53;;
6483;SDS011;3275;52.376;9.694;2023-12-20T03:08:11;3.80;;;1.40;;
6483;SDS011;3275;52.376;9.694;2023-12-20T03:10:38;1.83;;;1.30;;
6483;SDS011;3275;52.376;9.694;2023-12-20T03:13:06;13.67;;;1.40;;
6483;SDS011;3275;52.376;9.694;2023-12-20T03:15:33;7.00;;;1.23;;
6483;SDS011;3275;52.376;9.694;2023-12-20T03:17:59;12.53;;;1.60;;
6483;SDS011;3275;52.376;9.694;2023-12-20T03:20:26;3.87;;;1.23;;
6483;SDS011;3275;52.376;9.694;2023-12-20T03:22:53;15.60;;;1.57;;
6483;SDS011;3275;52.376;9.694;2023-12-20T03:25:19;2.00;;;1.00;;
6483;SDS011;3275;52.376;9.694;2023-12-20T03:27:46;1.93;;;0.80;;
6483;SDS011;3275;52.376;9.694;2023-12-20T03:30:14;4.30;;;0.90;;
6483;SDS011;3275;52.376;9.694;2023-12-20T03:32:40;10.43;;;1.30;;
6483;SDS011;3275;52.376;9.694;2023-12-20T03:35:07;10.77;;;1.10;;
6483;SDS011;3275;52.376;9.694;2023-12-20T03:40:56;2.30;;;1.53;;
6483;SDS011;3275;52.376;9.694;2023-12-20T03:43:22;7.30;;;1.53;;
6483;SDS011;3275;52.376;9.694;2023-12-20T03:45:50;7.40;;;1.30;;
6483;SDS011;3275;52.376;9.694;2023-12-20T03:48:17;9.17;;;1.80;;
6483;SDS011;3275;52.376;9.694;2023-12-20T03:50:43;3.67;;;1.60;;
6483;SDS011;3275;52.376;9.694;2023-12-20T03:53:10;5.10;;;1.10;;
6483;SDS011;3275;52.376;9.694;2023-12-20T03:55:36;2.87;;;0.77;;
6483;SDS011;3275;52.376;9.694;2023-12-20T03:58:03;6.10;;;1.43;;
6483;SDS011;3275;52.376;9.694;2023-12-20T04:00:29;7.70;;;1.00;;
6483;SDS011;3275;52.376;9.694;2023-12-20T04:02:57;6.27;;;0.87;;
6483;SDS011;3275;52.376;9.694;2023-12-20T04:05:24;7.33;;;1.40;;
6483;SDS011;3275;52.376;9.694;2023-12-20T04:07:50;8.70;;;1.37;;
6483;SDS011;3275;52.376;9.694;2023-12-20T04:10:17;1.90;;;1.20;;
6483;SDS011;3275;52.376;9.694;2023-12-20T04:12:44;5.33;;;1.53;;
6483;SDS011;3275;52.376;9.694;2023-12-20T04:15:10;8.83;;;1.07;;
6483;SDS011;3275;52.376;9.694;2023-12-20T04:17:37;3.73;;;0.90;;
6483;SDS011;3275;52.376;9.694;2023-12-20T04:20:06;2.50;;;0.97;;
6483;SDS011;3275;52.376;9.694;2023-12-20T04:22:33;8.60;;;1.30;;
6483;SDS011;3275;52.376;9.694;2023-12-20T04:25:00;8.53;;;1.30;;
6483;SDS011;3275;52.376;9.694;2023-12-20T04:27:27;7.70;;;1.60;;
6483;SDS011;3275;52.376;9.694;2023-12-20T04:29:53;8.30;;;1.10;;
6483;SDS011;3275;52.376;9.694;2023-12-20T04:32:20;7.23;;;1.30;;
6483;SDS011;3275;52.376;9.694;2023-12-20T04:34:46;7.90;;;2.27;;
6483;SDS011;3275;52.376;9.694;2023-12-20T04:37:14;4.00;;;1.30;;
6483;SDS011;3275;52.376;9.694;2023-12-20T04:39:41;5.60;;;1.20;;
6483;SDS011;3275;52.376;9.694;2023-12-20T04:42:08;4.10;;;1.40;;
6483;SDS011;3275;52.376;9.694;2023-12-20T04:44:34;6.07;;;1.40;;
6483;SDS011;3275;52.376;9.694;2023-12-20T04:47:01;12.53;;;1.60;;
6483;SDS011;3275;52.376;9.694;2023-12-20T04:49:28;7.00;;;1.87;;
6483;SDS011;3275;52.376;9.694;2023-12-20T04:51:54;4.37;;;1.10;;
6483;SDS011;3275;52.376;9.694;2023-12-20T04:54:22;7.53;;;1.47;;
6483;SDS011;3275;52.376;9.694;2023-12-20T04:56:49;8.77;;;1.73;;
6483;SDS011;3275;52.376;9.694;2023-12-20T04:59:15;6.90;;;1.70;;
6483;SDS011;3275;52.376;9.694;2023-12-20T05:01:41;4.83;;;1.20;;
6483;SDS011;3275;52.376;9.694;2023-12-20T05:04:08;19.03;;;2.07;;
6483;SDS011;3275;52.376;9.694;2023-12-20T05:06:34;3.97;;;1.67;;
6483;SDS011;3275;52.376;9.694;2023-12-20T05:09:01;6.13;;;1.50;;
6483;SDS011;3275;52.376;9.694;2023-12-20T05:11:29;11.10;;;1.87;;
6483;SDS011;3275;52.376;9.694;2023-12-20T05:13:56;8.17;;;1.53;;
6483;SDS011;3275;52.376;9.694;2023-12-20T05:16:22;6.07;;;1.63;;
6483;SDS011;3275;52.376;9.694;2023-12-20T05:18:49;7.70;;;1.70;;
6483;SDS011;3275;52.376;9.694;2023-12-20T05:21:17;7.20;;;2.03;;
6483;SDS011;3275;52.376;9.694;2023-12-20T05:23:43;9.07;;;1.43;;
6483;SDS011;3275;52.376;9.694;2023-12-20T05:26:10;13.00;;;2.10;;
6483;SDS011;3275;52.376;9.694;2023-12-20T05:28:38;5.60;;;1.77;;
6483;SDS011;3275;52.376;9.694;2023-12-20T05:31:05;11.33;;;2.40;;
6483;SDS011;3275;52.376;9.694;2023-12-20T05:33:32;6.20;;;1.43;;
6483;SDS011;3275;52.376;9.694;2023-12-20T05:35:58;3.43;;;1.80;;
6483;SDS011;3275;52.376;9.694;2023-12-20T05:38:25;10.63;;;3.30;;
6483;SDS011;3275;52.376;9.694;2023-12-20T05:40:51;13.97;;;2.23;;
6483;SDS011;3275;52.376;9.694;2023-12-20T05:43:18;17.07;;;3.10;;
6483;SDS011;3275;52.376;9.694;2023-12-20T05:45:46;11.20;;;1.80;;
6483;SDS011;3275;52.376;9.694;2023-12-20T05:48:12;7.60;;;2.00;;
6483;SDS011;3275;52.376;9.694;2023-12-20T05:50:39;5.27;;;1.90;;
6483;SDS011;3275;52.376;9.694;2023-12-20T05:53:06;11.43;;;2.13;;
6483;SDS011;3275;52.376;9.694;2023-12-20T05:55:32;6.97;;;1.60;;
6483;SDS011;3275;52.376;9.694;2023-12-20T05:57:59;7.97;;;2.00;;
6483;SDS011;3275;52.376;9.694;2023-12-20T06:00:25;10.00;;;2.33;;
6483;SDS011;3275;52.376;9.694;2023-12-20T06:02:53;5.90;;;2.17;;
6483;SDS011;3275;52.376;9.694;2023-12-20T06:05:20;9.30;;;1.90;;
6483;SDS011;3275;52.376;9.694;2023-12-20T06:07:47;12.60;;;2.13;;
6483;SDS011;3275;52.376;9.694;2023-12-20T06:10:15;9.43;;;2.00;;
6483;SDS011;3275;52.376;9.694;2023-12-20T06:12:42;7.33;;;1.60;;
6483;SDS011;3275;52.376;9.694;2023-12-20T06:15:10;9.00;;;2.20;;
6483;SDS011;3275;52.376;9.694;2023-12-20T06:17:36;3.70;;;1.73;;
6483;SDS011;3275;52.376;9.694;2023-12-20T06:20:04;6.30;;;2.13;;
6483;SDS011;3275;52.376;9.694;2023-12-20T06:22:34;7.83;;;1.80;;
6483;SDS011;3275;52.376;9.694;2023-12-20T06:25:00;14.43;;;2.47;;
6483;SDS011;3275;52.376;9.694;2023-12-20T06:27:27;11.10;;;2.37;;
6483;SDS011;3275;52.376;9.694;2023-12-20T06:29:54;4.47;;;1.90;;
6483;SDS011;3275;52.376;9.694;2023-12-20T06:32:21;9.90;;;2.23;;
6483;SDS011;3275;52.376;9.694;2023-12-20T06:34:49;9.10;;;2.10;;
6483;SDS011;3275;52.376;9.694;2023-12-20T06:37:17;9.43;;;2.23;;
6483;SDS011;3275;52.376;9.694;2023-12-20T06:39:44;9.70;;;1.60;;
6483;SDS011;3275;52.376;9.694;2023-12-20T06:42:12;12.10;;;2.50;;
6483;SDS011;3275;52.376;9.694;2023-12-20T06:44:39;9.27;;;2.00;;
6483;SDS011;3275;52.376;9.694;2023-12-20T06:47:05;10.37;;;1.73;;
6483;SDS011;3275;52.376;9.694;2023-12-20T06:49:32;8.83;;;2.30;;
6483;SDS011;3275;52.376;9.694;2023-12-20T06:51:58;7.90;;;2.00;;
6483;SDS011;3275;52.376;9.694;2023-12-20T06:54:26;6.77;;;2.30;;
6483;SDS011;3275;52.376;9.694;2023-12-20T06:56:53;7.70;;;2.27;;
6483;SDS011;3275;52.376;9.694;2023-12-20T06:59:19;7.20;;;2.13;;
6483;SDS011;3275;52.376;9.694;2023-12-20T07:01:47;9.83;;;2.40;;
6483;SDS011;3275;52.376;9.694;2023-12-20T07:04:15;10.80;;;1.80;;
6483;SDS011;3275;52.376;9.694;2023-12-20T07:06:45;8.37;;;2.03;;
6483;SDS011;3275;52.376;9.694;2023-12-20T07:09:12;13.23;;;2.20;;
6483;SDS011;3275;52.376;9.694;2023-12-20T07:11:40;8.10;;;2.20;;
6483;SDS011;3275;52.376;9.694;2023-12-20T07:14:07;9.60;;;2.43;;
6483;SDS011;3275;52.376;9.694;2023-12-20T07:16:33;9.73;;;2.70;;
6483;SDS011;3275;52.376;9.694;2023-12-20T07:19:01;7.20;;;1.87;;
6483;SDS011;3275;52.376;9.694;2023-12-20T07:21:28;8.10;;;2.47;;
6483;SDS011;3275;52.376;9.694;2023-12-20T07:23:54;14.00;;;2.40;;
6483;SDS011;3275;52.376;9.694;2023-12-20T07:26:21;10.13;;;1.73;;
6483;SDS011;3275;52.376;9.694;2023-12-20T07:28:49;16.80;;;2.30;;
6483;SDS011;3275;52.376;9.694;2023-12-20T07:31:16;9.47;;;2.40;;
6483;SDS011;3275;52.376;9.694;2023-12-20T07:33:42;8.53;;;2.20;;
6483;SDS011;3275;52.376;9.694;2023-12-20T07:36:09;16.37;;;2.47;;
6483;SDS011;3275;52.376;9.694;2023-12-20T07:38:36;12.07;;;2.00;;
6483;SDS011;3275;52.376;9.694;2023-12-20T07:41:03;16.60;;;3.33;;
6483;SDS011;3275;52.376;9.694;2023-12-20T07:43:30;5.77;;;1.60;;
6483;SDS011;3275;52.376;9.694;2023-12-20T07:46:01;15.47;;;3.57;;
6483;SDS011;3275;52.376;9.694;2023-12-20T07:48:30;14.67;;;2.17;;
6483;SDS011;3275;52.376;9.694;2023-12-20T07:50:57;5.83;;;1.43;;
6483;SDS011;3275;52.376;9.694;2023-12-20T07:53:23;3.63;;;1.53;;
6483;SDS011;3275;52.376;9.694;2023-12-20T07:55:50;8.17;;;2.20;;
6483;SDS011;3275;52.376;9.694;2023-12-20T07:58:17;10.50;;;2.20;;
6483;SDS011;3275;52.376;9.694;2023-12-20T08:00:44;8.37;;;1.90;;
6483;SDS011;3275;52.376;9.694;2023-12-20T08:03:12;14.10;;;2.50;;
6483;SDS011;3275;52.376;9.694;2023-12-20T08:05:39;12.47;;;3.00;;
6483;SDS011;3275;52.376;9.694;2023-12-20T08:08:06;14.40;;;3.43;;
6483;SDS011;3275;52.376;9.694;2023-12-20T08:10:32;13.07;;;2.47;;
6483;SDS011;3275;52.376;9.694;2023-12-20T08:12:59;18.03;;;3.20;;
6483;SDS011;3275;52.376;9.694;2023-12-20T08:15:26;9.47;;;2.57;;
6483;SDS011;3275;52.376;9.694;2023-12-20T08:17:52;7.37;;;2.67;;
6483;SDS011;3275;52.376;9.694;2023-12-20T08:20:20;5.20;;;2.60;;
6483;SDS011;3275;52.376;9.694;2023-12-20T08:22:47;9.00;;;2.43;;
6483;SDS011;3275;52.376;9.694;2023-12-20T08:25:13;6.73;;;2.47;;
6483;SDS011;3275;52.376;9.694;2023-12-20T08:27:40;13.50;;;3.20;;
6483;SDS011;3275;52.376;9.694;2023-12-20T08:30:08;12.33;;;2.57;;
6483;SDS011;3275;52.376;9.694;2023-12-20T08:32:35;8.87;;;2.77;;
6483;SDS011;3275;52.376;9.694;2023-12-20T08:35:02;17.60;;;2.63;;
6483;SDS011;3275;52.376;9.694;2023-12-20T08:37:31;14.40;;;2.37;;
6483;SDS011;3275;52.376;9.694;2023-12-20T08:39:57;4.93;;;1.60;;
6483;SDS011;3275;52.376;9.694;2023-12-20T08:42:24;14.63;;;2.63;;
6483;SDS011;3275;52.376;9.694;2023-12-20T08:44:56;6.87;;;1.80;;
6483;SDS011;3275;52.376;9.694;2023-12-20T08:47:22;5.87;;;2.27;;
6483;SDS011;3275;52.376;9.694;2023-12-20T08:49:49;5.37;;;1.60;;
6483;SDS011;3275;52.376;9.694;2023-12-20T08:52:15;6.73;;;2.10;;
6483;SDS011;3275;52.376;9.694;2023-12-20T08:54:44;7.70;;;2.27;;
6483;SDS011;3275;52.376;9.694;2023-12-20T08:57:10;6.63;;;1.83;;
6483;SDS011;3275;52.376;9.694;2023-12-20T08:59:37;4.67;;;1.90;;
6483;SDS011;3275;52.376;9.694;2023-12-20T09:02:03;7.40;;;1.93;;
6483;SDS011;3275;52.376;9.694;2023-12-20T09:04:30;9.40;;;2.63;;
6483;SDS011;3275;52.376;9.694;2023-12-20T09:06:59;3.93;;;1.80;;
6483;SDS011;3275;52.376;9.694;2023-12-20T09:09:26;13.20;;;2.53;;
6483;SDS011;3275;52.376;9.694;2023-12-20T09:11:54;7.20;;;2.10;;
6483;SDS011;3275;52.376;9.694;2023-12-20T09:14:21;14.63;;;2.30;;
6483;SDS011;3275;52.376;9.694;2023-12-20T09:16:47;4.00;;;2.10;;
6483;SDS011;3275;52.376;9.694;2023-12-20T09:19:16;13.13;;;3.00;;
6483;SDS011;3275;52.376;9.694;2023-12-20T09:21:42;4.17;;;1.87;;
6483;SDS011;3275;52.376;9.694;2023-12-20T09:24:09;13.20;;;2.30;;
6483;SDS011;3275;52.376;9.694;2023-12-20T09:26:36;8.40;;;2.40;;
6483;SDS011;3275;52.376;9.694;2023-12-20T09:29:06;9.20;;;2.67;;
6483;SDS011;3275;52.376;9.694;2023-12-20T09:31:35;14.30;;;2.73;;
6483;SDS011;3275;52.376;9.694;2023-12-20T09:34:02;15.93;;;2.47;;
6483;SDS011;3275;52.376;9.694;2023-12-20T09:36:29;11.07;;;2.57;;
6483;SDS011;3275;52.376;9.694;2023-12-20T09:38:59;10.13;;;2.27;;
6483;SDS011;3275;52.376;9.694;2023-12-20T09:41:26;5.30;;;1.80;;
6483;SDS011;3275;52.376;9.694;2023-12-20T09:43:54;9.83;;;2.73;;
6483;SDS011;3275;52.376;9.694;2023-12-20T09:46:24;6.13;;;2.03;;
6483;SDS011;3275;52.376;9.694;2023-12-20T09:48:54;11.00;;;2.33;;
6483;SDS011;3275;52.376;9.694;2023-12-20T09:51:22;14.60;;;1.83;;
6483;SDS011;3275;52.376;9.694;2023-12-20T09:53:49;10.77;;;1.70;;
6483;SDS011;3275;52.376;9.694;2023-12-20T09:56:17;10.87;;;2.37;;
6483;SDS011;3275;52.376;9.694;2023-12-20T09:58:44;7.20;;;1.80;;
6483;SDS011;3275;52.376;9.694;2023-12-20T10:01:10;5.53;;;1.70;;
6483;SDS011;3275;52.376;9.694;2023-12-20T10:03:39;18.53;;;2.07;;
6483;SDS011;3275;52.376;9.694;2023-12-20T10:06:06;11.77;;;1.83;;
6483;SDS011;3275;52.376;9.694;2023-12-20T10:08:33;13.90;;;2.07;;
6483;SDS011;3275;52.376;9.694;2023-12-20T10:11:00;6.53;;;1.93;;
6483;SDS011;3275;52.376;9.694;2023-12-20T10:13:29;9.00;;;1.83;;
6483;SDS011;3275;52.376;9.694;2023-12-20T10:15:55;4.57;;;1.27;;
6483;SDS011;3275;52.376;9.694;2023-12-20T10:18:22;8.13;;;2.37;;
6483;SDS011;3275;52.376;9.694;2023-12-20T10:20:50;7.87;;;2.00;;
6483;SDS011;3275;52.376;9.694;2023-12-20T10:23:17;8.43;;;2.30;;
6483;SDS011;3275;52.376;9.694;2023-12-20T10:25:48;9.03;;;2.00;;
6483;SDS011;3275;52.376;9.694;2023-12-20T10:28:23;14.30;;;2.40;;
6483;SDS011;3275;52.376;9.694;2023-12-20T10:30:52;8.00;;;1.80;;
6483;SDS011;3275;52.376;9.694;2023-12-20T10:33:23;12.70;;;2.43;;
6483;SDS011;3275;52.376;9.694;2023-12-20T10:35:52;13.87;;;2.40;;
6483;SDS011;3275;52.376;9.694;2023-12-20T10:38:19;8.87;;;2.00;;
6483;SDS011;3275;52.376;9.694;2023-12-20T10:40:45;3.50;;;1.47;;
6483;SDS011;3275;52.376;9.694;2023-12-20T10:43:12;4.73;;;1.93;;
6483;SDS011;3275;52.376;9.694;2023-12-20T10:45:39;7.83;;;2.10;;
6483;SDS011;3275;52.376;9.694;2023-12-20T10:48:07;5.40;;;1.90;;
6483;SDS011;3275;52.376;9.694;2023-12-20T10:50:36;17.77;;;2.37;;
6483;SDS011;3275;52.376;9.694;2023-12-20T10:53:06;10.77;;;1.90;;
6483;SDS011;3275;52.376;9.694;2023-12-20T10:55:33;6.50;;;1.90;;
6483;SDS011;3275;52.376;9.694;2023-12-20T10:58:00;3.50;;;1.70;;
6483;SDS011;3275;52.376;9.694;2023-12-20T11:00:28;3.20;;;1.60;;
6483;SDS011;3275;52.376;9.694;2023-12-20T11:02:56;11.00;;;1.90;;
6483;SDS011;3275;52.376;9.694;2023-12-20T11:05:40;10.10;;;2.00;;
6483;SDS011;3275;52.376;9.694;2023-12-20T11:08:17;10.83;;;2.10;;
6483;SDS011;3275;52.376;9.694;2023-12-20T11:10:55;10.57;;;2.40;;
6483;SDS011;3275;52.376;9.694;2023-12-20T11:13:26;3.40;;;1.60;;
6483;SDS011;3275;52.376;9.694;2023-12-20T11:15:56;6.33;;;1.87;;
6483;SDS011;3275;52.376;9.694;2023-12-20T11:18:28;9.03;;;1.80;;
6483;SDS011;3275;52.376;9.694;2023-12-20T11:20:55;6.90;;;1.73;;
6483;SDS011;3275;52.376;9.694;2023-12-20T11:23:27;6.53;;;1.97;;
6483;SDS011;3275;52.376;9.694;2023-12-20T11:25:56;10.33;;;1.67;;
6483;SDS011;3275;52.376;9.694;2023-12-20T11:28:23;9.83;;;2.10;;
6483;SDS011;3275;52.376;9.694;2023-12-20T11:30:51;4.73;;;1.80;;
6483;SDS011;3275;52.376;9.694;2023-12-20T11:33:22;7.33;;;2.60;;
6483;SDS011;3275;52.376;9.694;2023-12-20T11:35:50;4.90;;;1.80;;
6483;SDS011;3275;52.376;9.694;2023-12-20T11:38:17;6.17;;;1.50;;
6483;SDS011;3275;52.376;9.694;2023-12-20T11:40:49;8.40;;;1.70;;
6483;SDS011;3275;52.376;9.694;2023-12-20T11:43:29;12.50;;;3.17;;
6483;SDS011;3275;52.376;9.694;2023-12-20T11:45:56;10.30;;;2.30;;
6483;SDS011;3275;52.376;9.694;2023-12-20T11:48:29;5.73;;;1.87;;
6483;SDS011;3275;52.376;9.694;2023-12-20T11:50:56;4.07;;;1.20;;
6483;SDS011;3275;52.376;9.694;2023-12-20T11:53:23;4.27;;;1.27;;
6483;SDS011;3275;52.376;9.694;2023-12-20T11:55:51;1.33;;;0.90;;
6483;SDS011;3275;52.376;9.694;2023-12-20T11:58:17;4.17;;;0.97;;
6483;SDS011;3275;52.376;9.694;2023-12-20T12:00:44;1.43;;;0.97;;
6483;SDS011;3275;52.376;9.694;2023-12-20T12:03:14;3.70;;;1.20;;
6483;SDS011;3275;52.376;9.694;2023-12-20T12:05:41;2.03;;;0.80;;
6483;SDS011;3275;52.376;9.694;2023-12-20T12:08:07;3.53;;;0.70;;
6483;SDS011;3275;52.376;9.694;2023-12-20T12:10:34;1.17;;;0.50;;
6483;SDS011;3275;52.376;9.694;2023-12-20T12:13:02;3.60;;;0.50;;
6483;SDS011;3275;52.376;9.694;2023-12-20T12:15:29;5.20;;;0.70;;
6483;SDS011;3275;52.376;9.694;2023-12-20T12:17:55;1.00;;;0.57;;
6483;SDS011;3275;52.376;9.694;2023-12-20T12:20:24;9.00;;;0.80;;
6483;SDS011;3275;52.376;9.694;2023-12-20T12:22:57;1.90;;;0.50;;
6483;SDS011;3275;52.376;9.694;2023-12-20T12:25:25;1.73;;;0.63;;
6483;SDS011;3275;52.376;9.694;2023-12-20T12:27:52;1.57;;;0.50;;
6483;SDS011;3275;52.376;9.694;2023-12-20T12:30:20;1.07;;;0.60;;
6483;SDS011;3275;52.376;9.694;2023-12-20T12:32:47;2.20;;;0.70;;
6483;SDS011;3275;52.376;9.694;2023-12-20T12:35:13;2.70;;;0.70;;
6483;SDS011;3275;52.376;9.694;2023-12-20T12:37:40;0.97;;;0.50;;
6483;SDS011;3275;52.376;9.694;2023-12-20T12:40:09;4.50;;;0.50;;
6483;SDS011;3275;52.376;9.694;2023-12-20T12:42:36;1.87;;;0.77;;
6483;SDS011;3275;52.376;9.694;2023-12-20T12:45:04;0.90;;;0.47;;
6483;SDS011;3275;52.376;9.694;2023-12-20T12:47:32;2.50;;;1.10;;
6483;SDS011;3275;52.376;9.694;2023-12-20T12:49:59;2.60;;;0.70;;
6483;SDS011;3275;52.376;9.694;2023-12-20T12:52:26;5.40;;;1.27;;
6483;SDS011;3275;52.376;9.694;2023-12-20T12:54:52;3.07;;;0.70;;
6483;SDS011;3275;52.376;9.694;2023-12-20T12:57:18;3.63;;;0.60;;
6483;SDS011;3275;52.376;9.694;2023-12-20T12:59:45;2.50;;;0.87;;
6483;SDS011;3275;52.376;9.694;2023-12-20T13:02:12;1.97;;;0.50;;
6483;SDS011;3275;52.376;9.694;2023-12-20T13:04:40;4.10;;;0.80;;
6483;SDS011;3275;52.376;9.694;2023-12-20T13:07:08;5.70;;;0.70;;
6483;SDS011;3275;52.376;9.694;2023-12-20T13:09:36;1.60;;;0.70;;
6483;SDS011;3275;52.376;9.694;2023-12-20T13:12:03;6.93;;;0.97;;
6483;SDS011;3275;52.376;9.694;2023-12-20T13:14:31;2.43;;;0.60;;
6483;SDS011;3275;52.376;9.694;2023-12-20T13:16:59;1.87;;;0.50;;
6483;SDS011;3275;52.376;9.694;2023-12-20T13:19:26;1.93;;;0.87;;
6483;SDS011;3275;52.376;9.694;2023-12-20T13:21:54;3.07;;;1.00;;
6483;SDS011;3275;52.376;9.694;2023-12-20T13:24:20;5.27;;;1.00;;
6483;SDS011;3275;52.376;9.694;2023-12-20T13:26:47;4.83;;;1.27;;
6483;SDS011;3275;52.376;9.694;2023-12-20T13:29:13;2.60;;;0.60;;
6483;SDS011;3275;52.376;9.694;2023-12-20T13:31:40;3.70;;;0.80;;
6483;SDS011;3275;52.376;9.694;2023-12-20T13:34:07;2.50;;;1.00;;
6483;SDS011;3275;52.376;9.694;2023-12-20T13:36:33;6.17;;;1.00;;
6483;SDS011;3275;52.376;9.694;2023-12-20T13:39:02;2.90;;;0.83;;
6483;SDS011;3275;52.376;9.694;2023-12-20T13:41:30;5.40;;;1.30;;
6483;SDS011;3275;52.376;9.694;2023-12-20T13:43:56;5.83;;;0.67;;
6483;SDS011;3275;52.376;9.694;2023-12-20T13:46:23;2.47;;;0.70;;
6483;SDS011;3275;52.376;9.694;2023-12-20T13:48:50;1.33;;;0.60;;
6483;SDS011;3275;52.376;9.694;2023-12-20T13:51:16;2.80;;;0.80;;
6483;SDS011;3275;52.376;9.694;2023-12-20T13:53:43;5.73;;;0.80;;
6483;SDS011;3275;52.376;9.694;2023-12-20T13:56:11;0.97;;;0.60;;
6483;SDS011;3275;52.376;9.694;2023-12-20T13:58:37;1.00;;;0.80;;
6483;SDS011;3275;52.376;9.694;2023-12-20T14:01:04;1.50;;;0.53;;
6483;SDS011;3275;52.376;9.694;2023-12-20T14:03:31;4.13;;;0.90;;
6483;SDS011;3275;52.376;9.694;2023-12-20T14:05:58;1.93;;;1.03;;
6483;SDS011;3275;52.376;9.694;2023-12-20T14:08:25;2.83;;;0.80;;
6483;SDS011;3275;52.376;9.694;2023-12-20T14:10:52;1.33;;;0.80;;
6483;SDS011;3275;52.376;9.694;2023-12-20T14:13:20;4.30;;;0.90;;
6483;SDS011;3275;52.376;9.694;2023-12-20T14:15:46;3.57;;;1.17;;
6483;SDS011;3275;52.376;9.694;2023-12-20T14:18:14;1.87;;;0.83;;
6483;SDS011;3275;52.376;9.694;2023-12-20T14:20:41;2.07;;;0.83;;
6483;SDS011;3275;52.376;9.694;2023-12-20T14:23:09;5.10;;;0.97;;
6483;SDS011;3275;52.376;9.694;2023-12-20T14:25:36;13.37;;;1.50;;
6483;SDS011;3275;52.376;9.694;2023-12-20T14:28:03;5.90;;;1.23;;
6483;SDS011;3275;52.376;9.694;2023-12-20T14:30:31;2.77;;;0.90;;
6483;SDS011;3275;52.376;9.694;2023-12-20T14:32:58;1.03;;;0.80;;
6483;SDS011;3275;52.376;9.694;2023-12-20T14:35:25;6.83;;;1.53;;
6483;SDS011;3275;52.376;9.694;2023-12-20T14:37:51;2.20;;;1.07;;
6483;SDS011;3275;52.376;9.694;2023-12-20T14:40:18;5.23;;;0.67;;
6483;SDS011;3275;52.376;9.694;2023-12-20T14:42:47;8.90;;;1.10;;
6483;SDS011;3275;52.376;9.694;2023-12-20T14:45:14;6.63;;;1.13;;
6483;SDS011;3275;52.376;9.694;2023-12-20T14:47:42;6.20;;;0.97;;
6483;SDS011;3275;52.376;9.694;2023-12-20T14:50:09;3.37;;;1.23;;
6483;SDS011;3275;52.376;9.694;2023-12-20T14:52:36;3.72;;;1.25;;
6483;SDS011;3275;52.376;9.694;2023-12-20T14:55:03;4.93;;;1.30;;
6483;SDS011;3275;52.376;9.694;2023-12-20T14:57:30;3.20;;;1.30;;
6483;SDS011;3275;52.376;9.694;2023-12-20T14:59:58;2.23;;;1.00;;
6483;SDS011;3275;52.376;9.694;2023-12-20T15:02:25;3.13;;;0.80;;
6483;SDS011;3275;52.376;9.694;2023-12-20T15:04:53;8.73;;;1.10;;
6483;SDS011;3275;52.376;9.694;2023-12-20T15:07:22;1.60;;;0.90;;
6483;SDS011;3275;52.376;9.694;2023-12-20T15:09:49;3.40;;;1.20;;
6483;SDS011;3275;52.376;9.694;2023-12-20T15:12:16;3.73;;;0.80;;
6483;SDS011;3275;52.376;9.694;2023-12-20T15:14:43;3.33;;;0.87;;
6483;SDS011;3275;52.376;9.694;2023-12-20T15:17:12;3.10;;;0.90;;